Time;durP1;ratioP1;P1;durP2;ratioP2;P2;SDS_P1;SDS_P2;PMS_P1;PMS_P2;Temp;Humidity;BMP_temperature;BMP_pressure;BME280_temperature;BME280_humidity;BME280_pressure;Samples;Min_cycle;Max_cycle;Signal;HPM_P1;HPM_P2
2022/07/08 00:01:27;;;;;;;;;;;;;;;-144.99;85.44;52333.94;4951001;29;19937;-74
2022/07/08 00:03:54;;;;;;;;;;;;;;;-144.99;85.39;52354.34;4951199;29;19954;-72
2022/07/08 00:06:20;;;;;;;;;;;;;;;-144.99;85.75;52378.78;4951360;28;19963;-72
2022/07/08 00:08:48;;;;;;;;;;;;;;;-144.99;85.40;52317.66;4947016;28;19970;-72
2022/07/08 00:11:14;;;;;;;;;;;;;;;-144.99;84.89;52362.50;4947166;28;19962;-72
2022/07/08 00:13:41;;;;;;;;;;;;;;;-144.99;85.01;52374.72;4945904;28;19926;-72
2022/07/08 00:16:07;;;;;;;;;;;;;;;-144.99;84.95;52333.94;4946224;28;19922;-72
2022/07/08 00:18:34;;;;;;;;;;;;;;;-144.99;84.99;52362.50;4948359;29;19974;-72
2022/07/08 00:21:00;;;;;;;;;;;;;;;-144.99;84.64;52317.66;4946767;28;19950;-72
2022/07/08 00:23:27;;;;;;;;;;;;;;;-144.99;84.63;52350.25;4946605;29;19915;-72
2022/07/08 00:25:55;;;;;;;;;;;;;;;-144.99;84.17;52338.03;4946487;28;19927;-73
2022/07/08 00:28:21;;;;;;;;;;;;;;;-144.99;83.57;52333.94;4951193;28;19926;-73
2022/07/08 00:30:47;;;;;;;;;;;;;;;-144.99;83.49;52362.50;4944758;28;19927;-73
2022/07/08 00:33:14;;;;;;;;;;;;;;;-144.99;83.05;52354.34;4949704;29;19931;-73
2022/07/08 00:35:40;;;;;;;;;;;;;;;-144.99;82.80;52338.03;4948149;28;20077;-73
2022/07/08 00:38:07;;;;;;;;;;;;;;;-144.99;82.27;52354.34;4956455;28;19936;-72
2022/07/08 00:40:34;;;;;;;;;;;;;;;-144.99;82.08;52338.03;4945420;29;19969;-73
2022/07/08 00:43:02;;;;;;;;;;;;;;;-144.99;81.95;52331.91;4940809;29;19927;-72
2022/07/08 00:45:28;;;;;;;;;;;;;;;-144.99;82.07;52307.47;4935870;29;19926;-73
2022/07/08 00:47:55;;;;;;;;;;;;;;;-144.99;82.04;52350.25;4950770;29;19973;-72
2022/07/08 00:50:21;;;;;;;;;;;;;;;-144.99;81.77;52329.88;4952824;29;19922;-72
2022/07/08 00:52:48;;;;;;;;;;;;;;;-144.99;81.30;52364.53;4954126;29;19990;-72
2022/07/08 00:55:15;;;;;;;;;;;;;;;-144.99;81.01;52358.41;4953133;28;19935;-71
2022/07/08 00:57:42;;;;;;;;;;;;;;;-144.99;81.22;52333.94;4954398;28;19927;-72
2022/07/08 01:00:10;;;;;;;;;;;;;;;-144.99;80.92;52358.41;4954706;28;19926;-72
2022/07/08 01:02:36;;;;;;;;;;;;;;;-144.99;80.64;52333.94;4945163;29;19966;-71
2022/07/08 01:05:04;;;;;;;;;;;;;;;-144.99;80.77;52321.72;4947627;28;19926;-72
2022/07/08 01:07:30;;;;;;;;;;;;;;;-144.99;80.27;52301.34;4944058;29;20051;-72
2022/07/08 01:09:58;;;;;;;;;;;;;;;-144.99;80.15;52329.88;4930163;29;19962;-71
2022/07/08 01:12:25;;;;;;;;;;;;;;;-144.99;80.20;52360.44;4939014;29;19931;-72
2022/07/08 01:14:51;;;;;;;;;;;;;;;-144.99;80.02;52350.25;4933515;28;19965;-72
2022/07/08 01:17:19;;;;;;;;;;;;;;;-144.99;79.82;52342.09;4936112;28;19927;-73
2022/07/08 01:19:45;;;;;;;;;;;;;;;-144.99;79.39;52333.94;4942830;29;19959;-73
2022/07/08 01:22:13;;;;;;;;;;;;;;;-144.99;78.40;52346.19;4936811;29;19951;-73
2022/07/08 01:24:39;;;;;;;;;;;;;;;-144.99;78.58;52309.50;4939785;28;19937;-73
2022/07/08 01:27:06;;;;;;;;;;;;;;;-144.99;78.02;52325.81;4946637;29;20146;-72
2022/07/08 01:29:33;;;;;;;;;;;;;;;-144.99;77.39;52331.91;4944602;29;19927;-73
2022/07/08 01:32:00;;;;;;;;;;;;;;;-144.99;77.35;52342.09;4931413;29;20321;-73
2022/07/08 01:34:26;;;;;;;;;;;;;;;-144.99;76.85;52331.91;4930352;28;20354;-72
2022/07/08 01:36:53;;;;;;;;;;;;;;;-144.99;76.32;52321.72;4930650;29;20049;-72
2022/07/08 01:39:20;;;;;;;;;;;;;;;-144.99;75.74;52325.81;4945470;28;19927;-73
2022/07/08 01:41:47;;;;;;;;;;;;;;;-144.99;75.01;52382.88;4926564;28;20318;-73
2022/07/08 01:44:13;;;;;;;;;;;;;;;-144.99;75.02;52358.41;4925013;29;19962;-72
2022/07/08 01:46:40;;;;;;;;;;;;;;;-144.99;74.59;52350.25;4927094;28;19982;-73
2022/07/08 01:49:07;;;;;;;;;;;;;;;-144.99;74.73;52321.72;4928017;29;19950;-72
2022/07/08 01:51:33;;;;;;;;;;;;;;;-144.99;74.41;52338.03;4926678;28;20297;-72
2022/07/08 01:54:00;;;;;;;;;;;;;;;-144.99;74.45;52342.09;4924541;28;20049;-73
2022/07/08 01:56:27;;;;;;;;;;;;;;;-144.99;74.54;52342.09;4925268;29;20037;-73
2022/07/08 01:58:54;;;;;;;;;;;;;;;-144.99;74.66;52333.94;4926911;28;20021;-73
2022/07/08 02:01:20;;;;;;;;;;;;;;;-144.99;74.63;52338.03;4927358;28;19941;-73
2022/07/08 02:03:47;;;;;;;;;;;;;;;-144.99;74.89;52319.69;4926296;28;20034;-73
2022/07/08 02:06:13;;;;;;;;;;;;;;;-144.99;75.22;52358.41;4927224;28;20638;-73
2022/07/08 02:08:39;;;;;;;;;;;;;;;-144.99;75.29;52374.72;4927699;29;20029;-73
2022/07/08 02:13:51;;;;;;;;;;;;;;;-144.99;75.44;52366.56;4927183;28;19934;-73
2022/07/08 02:16:18;;;;;;;;;;;;;;;-144.99;75.33;52325.81;4926032;28;20001;-73
2022/07/08 02:18:44;;;;;;;;;;;;;;;-144.99;75.78;52309.50;4927145;29;20390;-73
2022/07/08 02:21:10;;;;;;;;;;;;;;;-144.99;75.74;52325.81;4927952;29;20025;-72
2022/07/08 02:23:37;;;;;;;;;;;;;;;-144.99;75.88;52301.34;4926419;29;20014;-71
2022/07/08 02:26:03;;;;;;;;;;;;;;;-144.99;76.04;52362.50;4927180;29;19927;-73
2022/07/08 02:28:30;;;;;;;;;;;;;;;-144.99;76.61;52350.25;4923980;28;19930;-73
2022/07/08 02:30:57;;;;;;;;;;;;;;;-144.99;76.68;52360.44;4927068;29;19966;-73
2022/07/08 02:33:24;;;;;;;;;;;;;;;-144.99;77.17;52333.94;4927230;29;20000;-72
2022/07/08 02:35:50;;;;;;;;;;;;;;;-144.99;77.71;52358.41;4925334;29;20025;-73
2022/07/08 02:38:17;;;;;;;;;;;;;;;-144.99;77.84;52370.63;4933091;28;20018;-73
2022/07/08 02:40:43;;;;;;;;;;;;;;;-144.99;78.25;52366.56;4927898;28;19931;-73
2022/07/08 02:43:10;;;;;;;;;;;;;;;-144.99;79.10;52319.69;4929239;29;19927;-73
2022/07/08 02:45:37;;;;;;;;;;;;;;;-144.99;79.08;52368.59;4932570;28;19981;-73
2022/07/08 02:48:05;;;;;;;;;;;;;;;-144.99;79.49;52338.03;4928587;29;19969;-73
2022/07/08 02:50:31;;;;;;;;;;;;;;;-144.99;80.04;52350.25;4927818;29;19927;-73
2022/07/08 02:52:58;;;;;;;;;;;;;;;-144.99;80.15;52317.66;4930756;29;20426;-73
2022/07/08 02:55:24;;;;;;;;;;;;;;;-144.99;80.10;52356.38;4927846;29;19926;-73
2022/07/08 02:57:51;;;;;;;;;;;;;;;-144.99;80.44;52325.81;4926621;28;19937;-74
2022/07/08 03:00:18;;;;;;;;;;;;;;;-144.99;80.43;52354.34;4928633;28;19926;-74
2022/07/08 03:02:44;;;;;;;;;;;;;;;-144.99;80.84;52346.19;4929071;29;19927;-73
2022/07/08 03:05:12;;;;;;;;;;;;;;;-144.99;80.72;52350.25;4928947;29;20456;-73
2022/07/08 03:07:38;;;;;;;;;;;;;;;-144.99;80.89;52331.91;4928831;28;20396;-73
2022/07/08 03:10:06;;;;;;;;;;;;;;;-144.99;81.21;52338.03;4923824;29;19934;-73
2022/07/08 03:12:32;;;;;;;;;;;;;;;-144.99;81.19;52325.81;4928027;29;20416;-73
2022/07/08 03:14:58;;;;;;;;;;;;;;;-144.99;81.31;52374.72;4930010;28;20026;-73
2022/07/08 03:17:25;;;;;;;;;;;;;;;-144.99;81.40;52370.63;4929353;29;19953;-73
2022/07/08 03:19:51;;;;;;;;;;;;;;;-144.99;81.44;52327.84;4928476;29;20426;-73
2022/07/08 03:22:19;;;;;;;;;;;;;;;-144.99;81.44;52325.81;4929223;28;19926;-73
2022/07/08 03:24:45;;;;;;;;;;;;;;;-144.99;81.70;52329.88;4928444;29;20335;-72
2022/07/08 03:27:12;;;;;;;;;;;;;;;-144.99;81.72;52333.94;4929641;29;19941;-72
2022/07/08 03:29:38;;;;;;;;;;;;;;;-144.99;81.95;52348.22;4926736;28;19942;-72
2022/07/08 03:32:05;;;;;;;;;;;;;;;-144.99;82.02;52350.25;4927588;28;20025;-72
2022/07/08 03:34:31;;;;;;;;;;;;;;;-144.99;82.18;52358.41;4932176;28;19966;-72
2022/07/08 03:36:58;;;;;;;;;;;;;;;-144.99;82.28;52370.63;4929222;29;20018;-72
2022/07/08 03:39:26;;;;;;;;;;;;;;;-144.99;82.57;52333.94;4932208;28;20361;-72
2022/07/08 03:41:51;;;;;;;;;;;;;;;-144.99;82.60;52333.94;4929146;29;19931;-72
2022/07/08 03:44:17;;;;;;;;;;;;;;;-144.99;82.90;52362.50;4929195;28;20453;-72
2022/07/08 03:46:44;;;;;;;;;;;;;;;-144.99;82.79;52303.38;4930141;29;19966;-72
2022/07/08 03:49:10;;;;;;;;;;;;;;;-144.99;83.19;52340.06;4927903;28;19927;-72
2022/07/08 03:51:37;;;;;;;;;;;;;;;-144.99;82.98;52317.66;4933682;29;19931;-71
2022/07/08 03:54:03;;;;;;;;;;;;;;;-144.99;83.43;52307.47;4936841;29;19927;-70
2022/07/08 03:56:31;;;;;;;;;;;;;;;-144.99;83.25;52317.66;4929748;29;20013;-71
2022/07/08 03:58:57;;;;;;;;;;;;;;;-144.99;83.12;52346.19;4931112;28;19958;-72
2022/07/08 04:01:24;;;;;;;;;;;;;;;-144.99;83.08;52360.44;4930433;29;20029;-72
2022/07/08 04:03:50;;;;;;;;;;;;;;;-144.99;83.08;52360.44;4932195;29;19933;-72
2022/07/08 04:06:17;;;;;;;;;;;;;;;-144.99;82.97;52342.09;4931875;29;20495;-72
2022/07/08 04:08:43;;;;;;;;;;;;;;;-144.99;82.70;52338.03;4931687;28;19927;-72
2022/07/08 04:11:10;;;;;;;;;;;;;;;-144.99;82.71;52362.50;4931071;29;19954;-71
2022/07/08 04:13:38;;;;;;;;;;;;;;;-144.99;82.41;52362.50;4929269;28;19942;-71
2022/07/08 04:16:08;;;;;;;;;;;;;;;-144.99;82.46;52350.25;4928714;29;19933;-72
2022/07/08 04:18:34;;;;;;;;;;;;;;;-144.99;82.14;52329.88;4929638;29;20025;-72
2022/07/08 04:21:00;;;;;;;;;;;;;;;-144.99;82.41;52293.19;4928932;29;20022;-70
2022/07/08 04:23:27;;;;;;;;;;;;;;;-144.99;82.66;52329.88;4928835;28;19966;-71
2022/07/08 04:25:53;;;;;;;;;;;;;;;-144.99;82.86;52331.91;4928577;28;20472;-70
2022/07/08 04:28:20;;;;;;;;;;;;;;;-144.99;83.18;52321.72;4928728;28;20026;-71
2022/07/08 04:30:47;;;;;;;;;;;;;;;-144.99;83.10;52299.31;4927980;28;19933;-70
2022/07/08 04:33:14;;;;;;;;;;;;;;;-144.99;83.22;52338.03;4927589;28;19958;-70
2022/07/08 04:35:40;;;;;;;;;;;;;;;-144.99;82.54;52329.88;4928792;29;20005;-70
2022/07/08 04:38:07;;;;;;;;;;;;;;;-144.99;81.96;52301.34;4933794;28;19937;-70
2022/07/08 04:40:33;;;;;;;;;;;;;;;-144.99;80.92;52272.81;4932190;29;19927;-70
2022/07/08 04:43:00;;;;;;;;;;;;;;;-144.99;80.54;52329.88;4930361;29;20297;-70
2022/07/08 04:45:26;;;;;;;;;;;;;;;-144.99;79.81;52293.19;4930964;28;20380;-70
2022/07/08 04:47:54;;;;;;;;;;;;;;;-144.99;80.18;52291.16;4928163;28;19934;-70
2022/07/08 04:50:21;;;;;;;;;;;;;;;-144.99;79.88;52321.72;4929506;28;20038;-73
2022/07/08 04:52:47;;;;;;;;;;;;;;;-144.99;79.00;52346.19;4977406;22;19925;-74
2022/07/08 04:57:55;;;;;;;;;;;;;;;-144.99;77.70;52305.41;5003935;28;19932;-74
2022/07/08 05:00:21;;;;;;;;;;;;;;;-144.99;76.71;52338.03;5008075;28;19934;-74
2022/07/08 05:02:48;;;;;;;;;;;;;;;-144.99;75.78;52325.81;5003006;28;19926;-73
2022/07/08 05:05:15;;;;;;;;;;;;;;;-144.99;74.58;52325.81;4330869;28;10020703;-73
2022/07/08 05:07:42;;;;;;;;;;;;;;;-144.99;73.89;52311.53;4986176;28;20493;-75
2022/07/08 05:10:09;;;;;;;;;;;;;;;-144.99;72.92;52289.13;5009856;28;20441;-74
2022/07/08 05:12:35;;;;;;;;;;;;;;;-144.99;72.43;52299.31;5004963;28;20365;-73
2022/07/08 05:15:01;;;;;;;;;;;;;;;-144.99;71.37;52297.25;5001747;28;20435;-73
2022/07/08 05:17:28;;;;;;;;;;;;;;;-144.99;70.71;52305.41;5003508;28;20021;-73
2022/07/08 05:19:54;;;;;;;;;;;;;;;-144.99;70.65;52270.78;5009278;28;19928;-74
2022/07/08 05:22:22;;;;;;;;;;;;;;;-144.99;70.55;52260.56;4989879;28;19986;-72
2022/07/08 05:24:48;;;;;;;;;;;;;;;-144.99;70.25;52311.53;4997809;28;19930;-72
2022/07/08 05:27:15;;;;;;;;;;;;;;;-144.99;70.52;52309.50;5026456;28;20331;-73
2022/07/08 05:29:41;;;;;;;;;;;;;;;-144.99;70.96;52285.03;4989095;28;19929;-73
2022/07/08 05:32:08;;;;;;;;;;;;;;;-144.99;70.68;52313.56;4999118;28;19934;-73
2022/07/08 05:34:35;;;;;;;;;;;;;;;-144.99;69.99;52305.41;4985437;28;20012;-74
2022/07/08 05:37:01;;;;;;;;;;;;;;;-144.99;69.56;52305.41;4986050;28;21144;-73
2022/07/08 05:39:29;;;;;;;;;;;;;;;-144.99;69.96;52299.31;5006545;28;20587;-74
2022/07/08 05:41:55;;;;;;;;;;;;;;;-144.99;70.39;52276.88;4987739;28;20291;-74
2022/07/08 05:44:22;;;;;;;;;;;;;;;-144.99;71.07;52325.81;4994431;28;20330;-73
2022/07/08 05:46:48;;;;;;;;;;;;;;;-144.99;72.07;52309.50;5000148;28;20018;-72
2022/07/08 05:49:14;;;;;;;;;;;;;;;-144.99;72.85;52309.50;4989102;28;19935;-74
2022/07/08 05:51:41;;;;;;;;;;;;;;;-144.99;73.46;52301.34;4987908;28;19936;-73
2022/07/08 05:54:07;;;;;;;;;;;;;;;-144.99;73.68;52321.72;4982597;28;20029;-72
2022/07/08 05:56:36;;;;;;;;;;;;;;;-144.99;73.79;52293.19;4988008;28;20387;-74
2022/07/08 05:59:02;;;;;;;;;;;;;;;-144.99;74.20;52280.97;4979657;28;19930;-73
2022/07/08 06:01:29;;;;;;;;;;;;;;;-144.99;73.87;52272.81;4983408;28;20416;-74
2022/07/08 06:03:55;;;;;;;;;;;;;;;-144.99;72.92;52289.13;4994237;28;19930;-76
2022/07/08 06:06:22;;;;;;;;;;;;;;;-144.99;71.85;52301.34;4999878;28;19932;-75
2022/07/08 06:08:48;;;;;;;;;;;;;;;-144.99;71.62;52293.19;4990367;28;19929;-74
2022/07/08 06:11:15;;;;;;;;;;;;;;;-144.99;69.89;52266.69;5001588;28;19958;-75
2022/07/08 06:13:43;;;;;;;;;;;;;;;-144.99;68.13;52256.50;4984102;28;20447;-74
2022/07/08 06:16:09;;;;;;;;;;;;;;;-144.99;66.16;52264.66;5010099;28;20014;-75
2022/07/08 06:18:35;;;;;;;;;;;;;;;-144.99;66.60;52276.88;5021044;28;20361;-74
2022/07/08 06:21:02;;;;;;;;;;;;;;;-144.99;65.84;52283.00;5026245;28;20322;-74
2022/07/08 06:23:28;;;;;;;;;;;;;;;-144.99;65.57;52287.06;4985690;28;20024;-73
2022/07/08 06:25:55;;;;;;;;;;;;;;;-144.99;64.63;52260.56;5001970;28;20458;-73
2022/07/08 06:28:21;;;;;;;;;;;;;;;-144.99;64.94;52293.19;5000986;28;19992;-75
2022/07/08 06:30:49;;;;;;;;;;;;;;;-144.99;64.89;52262.63;4982380;28;20409;-73
2022/07/08 06:33:15;;;;;;;;;;;;;;;-144.99;64.58;52244.28;4993802;28;20432;-74
2022/07/08 06:35:42;;;;;;;;;;;;;;;-144.99;64.15;52272.81;4996500;28;19926;-74
2022/07/08 06:38:08;;;;;;;;;;;;;;;-144.99;64.21;52244.28;4999740;28;20026;-75
2022/07/08 06:40:35;;;;;;;;;;;;;;;-144.99;62.51;52260.56;4656863;28;10000414;-74
2022/07/08 06:43:02;;;;;;;;;;;;;;;-144.99;63.13;52246.31;4981034;28;20385;-73
2022/07/08 06:45:31;;;;;;;;;;;;;;;-144.99;62.94;52293.19;4988848;28;19930;-72
2022/07/08 06:47:59;;;;;;;;;;;;;;;-144.99;62.78;52276.88;5006992;28;19965;-75
2022/07/08 06:50:26;;;;;;;;;;;;;;;-144.99;63.39;52252.44;4980823;28;20016;-74
2022/07/08 06:52:53;;;;;;;;;;;;;;;-144.99;63.94;52248.34;4984731;28;20309;-74
2022/07/08 06:55:19;;;;;;;;;;;;;;;-144.99;63.91;52256.50;4998672;28;19944;-74
2022/07/08 06:57:46;;;;;;;;;;;;;;;-144.99;64.23;52260.56;4989974;28;19956;-75
2022/07/08 07:00:13;;;;;;;;;;;;;;;-144.99;64.75;52236.13;4981726;28;19930;-73
2022/07/08 07:02:39;;;;;;;;;;;;;;;-144.99;64.87;52268.72;4983100;28;19930;-74
2022/07/08 07:05:08;;;;;;;;;;;;;;;-144.99;65.11;52234.09;5031364;28;19928;-75
2022/07/08 07:07:35;;;;;;;;;;;;;;;-144.99;65.30;52264.66;4981841;28;19956;-74
2022/07/08 07:10:02;;;;;;;;;;;;;;;-144.99;66.12;52256.50;4997008;28;20032;-73
2022/07/08 07:12:28;;;;;;;;;;;;;;;-144.99;67.59;52270.78;4990133;28;20020;-75
2022/07/08 07:14:55;;;;;;;;;;;;;;;-144.99;68.39;52291.16;5004524;28;19976;-73
2022/07/08 07:17:21;;;;;;;;;;;;;;;-144.99;69.71;52285.03;5008833;28;19956;-74
2022/07/08 07:19:49;;;;;;;;;;;;;;;-144.99;70.49;52280.97;5027706;28;20020;-73
2022/07/08 07:22:17;;;;;;;;;;;;;;;-144.99;71.07;52264.66;4999466;28;20528;-74
2022/07/08 07:24:43;;;;;;;;;;;;;;;-144.99;71.66;52238.16;5003402;28;19938;-74
2022/07/08 07:27:10;;;;;;;;;;;;;;;-144.99;72.80;52301.34;4991640;28;20021;-74
2022/07/08 07:29:37;;;;;;;;;;;;;;;-144.99;75.85;52297.25;4988067;28;20012;-74
2022/07/08 07:32:03;;;;;;;;;;;;;;;-144.99;76.31;52285.03;5023084;28;19934;-74
2022/07/08 07:34:30;;;;;;;;;;;;;;;-144.99;77.88;52305.41;4991892;28;20312;-74
2022/07/08 07:36:56;;;;;;;;;;;;;;;-144.99;78.45;52333.94;4991922;28;19928;-75
2022/07/08 07:39:25;;;;;;;;;;;;;;;-144.99;79.49;52256.50;4985681;28;19940;-75
2022/07/08 07:41:51;;;;;;;;;;;;;;;-144.99;79.19;52297.25;4995208;28;19929;-74
2022/07/08 07:44:18;;;;;;;;;;;;;;;-144.99;81.31;52240.19;4991060;28;20028;-75
2022/07/08 07:46:44;;;;;;;;;;;;;;;-144.99;82.64;52260.56;5010842;28;19930;-74
2022/07/08 07:49:11;;;;;;;;;;;;;;;-144.99;85.05;52289.13;4996743;28;19937;-74
2022/07/08 07:51:37;;;;;;;;;;;;;;;-144.99;85.98;52317.66;5000501;28;19940;-73
2022/07/08 07:54:04;;;;;;;;;;;;;;;-144.99;91.00;52297.25;4996205;28;20310;-75
2022/07/08 07:56:32;;;;;;;;;;;;;;;-144.99;93.10;52305.41;5013890;28;19930;-76
2022/07/08 07:58:59;;;;;;;;;;;;;;;-144.99;95.09;52264.66;4995707;28;19936;-73
2022/07/08 08:01:25;;;;;;;;;;;;;;;-144.99;96.91;52272.81;4997779;28;19977;-74
2022/07/08 08:03:52;;;;;;;;;;;;;;;-144.99;99.31;52280.97;4992922;28;20021;-74
2022/07/08 08:06:19;;;;;;;;;;;;;;;-144.99;99.46;52299.31;4987619;28;20024;-74
2022/07/08 08:08:45;;;;;;;;;;;;;;;-144.99;100.00;52309.50;4994123;28;19933;-74
2022/07/08 08:11:11;;;;;;;;;;;;;;;-144.99;100.00;52358.41;4997905;28;20030;-74
2022/07/08 08:13:39;;;;;;;;;;;;;;;-144.99;100.00;52301.34;5000081;28;19930;-76
2022/07/08 08:16:06;;;;;;;;;;;;;;;-144.99;100.00;52338.03;5003415;28;19936;-73
2022/07/08 08:18:32;;;;;;;;;;;;;;;-144.99;100.00;52289.13;4993452;28;19934;-71
2022/07/08 08:20:58;;;;;;;;;;;;;;;-144.99;100.00;52299.31;4996610;28;20033;-72
2022/07/08 08:23:25;;;;;;;;;;;;;;;-144.99;100.00;52289.13;4989906;28;20130;-72
2022/07/08 08:25:51;;;;;;;;;;;;;;;-144.99;100.00;52272.81;5016374;28;20046;-72
2022/07/08 08:28:18;;;;;;;;;;;;;;;-144.99;100.00;52305.41;4982539;28;19926;-73
2022/07/08 08:30:46;;;;;;;;;;;;;;;-144.99;100.00;52285.03;4988062;28;20484;-72
2022/07/08 08:33:12;;;;;;;;;;;;;;;-144.99;100.00;52285.03;5002929;28;20056;-72
2022/07/08 08:35:39;;;;;;;;;;;;;;;-144.99;100.00;52313.56;5003359;28;19936;-74
2022/07/08 08:38:05;;;;;;;;;;;;;;;-144.99;100.00;52305.41;5009414;28;20285;-72
2022/07/08 08:40:32;;;;;;;;;;;;;;;-144.99;100.00;52276.88;5004950;28;20449;-73
2022/07/08 08:42:58;;;;;;;;;;;;;;;-144.99;100.00;52272.81;5012102;28;19925;-73
2022/07/08 08:45:25;;;;;;;;;;;;;;;-144.99;100.00;52293.19;5002319;28;19932;-73
2022/07/08 08:47:53;;;;;;;;;;;;;;;-144.99;100.00;52309.50;5027863;28;20032;-74
2022/07/08 08:53:06;;;;;;;;;;;;;;;-144.99;100.00;52285.03;4985380;28;19944;-73
2022/07/08 08:55:34;;;;;;;;;;;;;;;-144.99;100.00;52295.22;5004401;28;19930;-73
2022/07/08 08:58:02;;;;;;;;;;;;;;;-144.99;100.00;52252.44;5004455;28;19928;-73
2022/07/08 09:00:29;;;;;;;;;;;;;;;-144.99;100.00;52280.97;4980018;28;19944;-72
2022/07/08 09:02:57;;;;;;;;;;;;;;;-144.99;100.00;52293.19;4987302;28;19933;-73
2022/07/08 09:05:24;;;;;;;;;;;;;;;-144.99;100.00;52311.53;4984973;28;19940;-74
2022/07/08 09:07:50;;;;;;;;;;;;;;;-144.99;100.00;52311.53;4986563;28;19935;-72
2022/07/08 09:10:17;;;;;;;;;;;;;;;-144.99;100.00;52280.97;4981728;28;19929;-74
2022/07/08 09:12:58;;;;;;;;;;;;;;;-144.99;100.00;52256.50;4997102;28;20443;-74
2022/07/08 09:15:29;;;;;;;;;;;;;;;-144.99;100.00;52333.94;4983942;28;20028;-73
2022/07/08 09:17:57;;;;;;;;;;;;;;;-144.99;100.00;52295.22;4981950;28;19994;-73
2022/07/08 09:20:23;;;;;;;;;;;;;;;-144.99;100.00;52289.13;4991217;28;19940;-74
2022/07/08 09:22:49;;;;;;;;;;;;;;;-144.99;100.00;52276.88;4981090;28;19934;-74
2022/07/08 09:25:16;;;;;;;;;;;;;;;-144.99;100.00;52285.03;4980882;28;20384;-73
2022/07/08 09:27:42;;;;;;;;;;;;;;;-144.99;100.00;52248.34;4991198;28;19926;-76
2022/07/08 09:30:09;;;;;;;;;;;;;;;-144.99;100.00;52287.06;4986384;28;20411;-73
2022/07/08 09:32:36;;;;;;;;;;;;;;;-144.99;100.00;52278.91;4986711;28;19934;-73
2022/07/08 09:35:12;;;;;;;;;;;;;;;-144.99;100.00;52299.31;4993207;28;20404;-73
2022/07/08 09:37:39;;;;;;;;;;;;;;;-144.99;100.00;52268.72;5004363;28;19949;-73
2022/07/08 09:40:16;;;;;;;;;;;;;;;-144.99;100.00;52227.97;4985849;28;19975;-76
2022/07/08 09:42:43;;;;;;;;;;;;;;;-144.99;100.00;52287.06;5001092;28;20028;-73
2022/07/08 09:45:10;;;;;;;;;;;;;;;-144.99;100.00;52293.19;5000383;28;19931;-73
2022/07/08 09:47:36;;;;;;;;;;;;;;;-144.99;100.00;52297.25;4997989;28;20351;-73
2022/07/08 09:50:09;;;;;;;;;;;;;;;-144.99;100.00;52287.06;5006508;28;20377;-74
2022/07/08 09:52:35;;;;;;;;;;;;;;;-144.99;100.00;52297.25;4996791;28;19941;-74
2022/07/08 09:55:02;;;;;;;;;;;;;;;-144.99;100.00;52283.00;4990737;28;20304;-73
2022/07/08 09:57:29;;;;;;;;;;;;;;;-144.99;100.00;52276.88;4995331;28;19930;-73
2022/07/08 09:59:56;;;;;;;;;;;;;;;-144.99;100.00;52285.03;4997204;28;19934;-73
2022/07/08 10:02:23;;;;;;;;;;;;;;;-144.99;100.00;52272.81;4996392;28;19930;-75
2022/07/08 10:04:50;;;;;;;;;;;;;;;-144.99;100.00;52268.72;4983006;28;19933;-74
2022/07/08 10:07:18;;;;;;;;;;;;;;;-144.99;100.00;52232.03;4983729;28;20188;-74
2022/07/08 10:09:45;;;;;;;;;;;;;;;-144.99;100.00;52260.56;4982759;28;20015;-73
2022/07/08 10:12:11;;;;;;;;;;;;;;;-144.99;100.00;52260.56;4998160;28;19937;-74
2022/07/08 10:14:38;;;;;;;;;;;;;;;-144.99;100.00;52272.81;5000046;28;19983;-75
2022/07/08 10:17:07;;;;;;;;;;;;;;;-144.99;100.00;52244.28;4995729;28;19999;-72
2022/07/08 10:19:35;;;;;;;;;;;;;;;-144.99;100.00;52250.38;4995988;28;20432;-74
2022/07/08 10:22:03;;;;;;;;;;;;;;;-144.99;100.00;52236.13;4989022;28;19936;-73
2022/07/08 10:24:33;;;;;;;;;;;;;;;-144.99;100.00;52244.28;4989700;28;19926;-73
2022/07/08 10:27:01;;;;;;;;;;;;;;;-144.99;100.00;52280.97;4993833;28;19942;-74
2022/07/08 10:29:31;;;;;;;;;;;;;;;-144.99;100.00;52285.03;4980937;28;19938;-74
2022/07/08 10:31:58;;;;;;;;;;;;;;;-144.99;100.00;52215.75;4990908;28;20822;-73
2022/07/08 10:34:29;;;;;;;;;;;;;;;-144.99;100.00;52248.34;4983035;28;20008;-72
2022/07/08 10:36:56;;;;;;;;;;;;;;;-144.99;100.00;52285.03;4988101;28;19932;-74
2022/07/08 10:39:26;;;;;;;;;;;;;;;-144.99;100.00;52236.13;4982585;28;19932;-74
2022/07/08 10:41:58;;;;;;;;;;;;;;;-144.99;100.00;52287.06;4978796;28;20021;-73
2022/07/08 10:44:52;;;;;;;;;;;;;;;-144.99;100.00;52256.50;4990737;28;19930;-72
2022/07/08 10:47:24;;;;;;;;;;;;;;;-144.99;100.00;52207.59;4950960;28;20183;-75
2022/07/08 10:49:50;;;;;;;;;;;;;;;-144.99;100.00;52242.22;5001133;28;19932;-73
2022/07/08 10:52:17;;;;;;;;;;;;;;;-144.99;100.00;52150.53;4996145;28;19937;-74
2022/07/08 10:54:44;;;;;;;;;;;;;;;-144.99;100.00;52195.34;4983305;28;19932;-72
2022/07/08 10:57:17;;;;;;;;;;;;;;;-144.99;100.00;52219.81;4985693;28;20045;-73
2022/07/08 11:00:00;;;;;;;;;;;;;;;-144.99;99.36;52193.31;5013705;28;19924;-73
2022/07/08 11:02:27;;;;;;;;;;;;;;;-144.99;95.81;52152.56;4983434;28;19940;-74
2022/07/08 11:04:54;;;;;;;;;;;;;;;-144.99;95.34;52199.44;4989867;28;19930;-74
2022/07/08 11:07:28;;;;;;;;;;;;;;;-144.99;91.64;52187.19;4980366;28;19930;-74
2022/07/08 11:09:55;;;;;;;;;;;;;;;-144.99;91.87;52183.13;4980820;28;19958;-75
2022/07/08 11:12:25;;;;;;;;;;;;;;;-144.99;91.74;52160.72;4991088;28;19956;-75
2022/07/08 11:14:52;;;;;;;;;;;;;;;-144.99;91.14;52193.31;4985689;28;19937;-74
2022/07/08 11:17:19;;;;;;;;;;;;;;;-144.99;89.46;52187.19;5002240;28;19926;-74
2022/07/08 11:19:46;;;;;;;;;;;;;;;-144.99;87.46;52223.88;5010491;28;20037;-75
2022/07/08 11:22:13;;;;;;;;;;;;;;;-144.99;84.88;52130.13;4996872;28;19936;-74
2022/07/08 11:24:40;;;;;;;;;;;;;;;-144.99;81.47;52217.78;5001051;28;20045;-74
2022/07/08 11:27:07;;;;;;;;;;;;;;;-144.99;82.52;52199.44;4998749;28;19933;-73
2022/07/08 11:29:35;;;;;;;;;;;;;;;-144.99;79.78;52166.81;4997437;28;19933;-74
2022/07/08 11:32:02;;;;;;;;;;;;;;;-144.99;78.56;52113.84;4990161;28;19952;-72
2022/07/08 11:34:28;;;;;;;;;;;;;;;-144.99;78.18;52117.91;4987755;28;19934;-74
2022/07/08 11:36:55;;;;;;;;;;;;;;;-144.99;76.03;52097.53;4998411;28;19924;-74
2022/07/08 11:39:21;;;;;;;;;;;;;;;-144.99;75.51;52111.78;4997927;28;19934;-74
2022/07/08 11:41:48;;;;;;;;;;;;;;;-144.99;72.73;52081.22;5005201;28;20234;-74
2022/07/08 11:44:18;;;;;;;;;;;;;;;-144.99;71.07;52109.75;4985228;28;19961;-72
2022/07/08 11:46:47;;;;;;;;;;;;;;;-144.99;69.11;52146.44;4995295;28;19946;-74
2022/07/08 11:49:14;;;;;;;;;;;;;;;-144.99;69.25;52160.72;4989453;28;20331;-74
2022/07/08 11:51:44;;;;;;;;;;;;;;;-144.99;70.66;52064.91;4997351;28;20295;-75
2022/07/08 11:54:11;;;;;;;;;;;;;;;-144.99;69.26;52126.06;4987959;28;20381;-75
2022/07/08 11:56:37;;;;;;;;;;;;;;;-144.99;67.57;52081.22;4985800;28;20024;-73
2022/07/08 11:59:04;;;;;;;;;;;;;;;-144.99;69.27;52154.59;4993240;28;19926;-74
2022/07/08 12:01:31;;;;;;;;;;;;;;;-144.99;70.51;52138.28;4989647;28;19981;-73
2022/07/08 12:03:59;;;;;;;;;;;;;;;-144.99;69.08;52150.53;4985771;28;19926;-73
2022/07/08 12:06:25;;;;;;;;;;;;;;;-144.99;69.32;52079.19;4989556;28;19958;-74
2022/07/08 12:08:52;;;;;;;;;;;;;;;-144.99;69.58;52170.91;5001790;28;19926;-72
2022/07/08 12:11:20;;;;;;;;;;;;;;;-144.99;70.81;52158.66;4983320;28;19930;-74
2022/07/08 12:13:47;;;;;;;;;;;;;;;-144.99;70.64;52146.44;5005296;28;19926;-74
2022/07/08 12:16:29;;;;;;;;;;;;;;;-144.99;70.61;52179.06;5001597;28;20017;-73
2022/07/08 12:18:56;;;;;;;;;;;;;;;-144.99;67.45;52183.13;5007223;28;19969;-74
2022/07/08 12:21:24;;;;;;;;;;;;;;;-144.99;66.05;52158.66;5014519;28;20001;-72
2022/07/08 12:23:57;;;;;;;;;;;;;;;-144.99;64.53;52183.13;4994157;28;19934;-74
2022/07/08 12:26:24;;;;;;;;;;;;;;;-144.99;66.40;52191.28;4997663;28;19929;-73
2022/07/08 12:28:50;;;;;;;;;;;;;;;-144.99;67.29;52203.50;5001789;28;19928;-72
2022/07/08 12:31:33;;;;;;;;;;;;;;;-144.99;69.02;52211.66;4995116;28;19926;-73
2022/07/08 12:34:03;;;;;;;;;;;;;;;-144.99;70.01;52174.97;5002637;28;19928;-72